EXS2WM GCTS-EGNM
Flight info
| Callsign | EXS2WM |
|---|---|
| Flight time | N/A |
| Altitude | 36000 |
| Route | BIMBO DCT LIDRO DCT MANOX/M081F360 T13 OMOKO DCT GUNSO/N0461F360 DCT TISMO DCT CML DCT KOMER DCT KLY DCT BOFUM Q37 MALUD L975 WAL DCT POL |
| Aircraft | B738/M-SDE2E3FGHIRWXY/LB1 |
Departure
| Time | 2026-04-27 14:31 |
|---|---|
| Airport | Tenerife Sur Airport (GCTS) |
Arrival
| Time | N/A |
|---|---|
| Airport | Leeds Bradford Airport (EGNM) |
| Time | Latitude | Longitude | Altitude | Speed | Heading |
|---|---|---|---|---|---|
| 2026-04-27 14:06 | 28.04539 | -16.58173 | 226 ft | 0 kts | 338° |
| 2026-04-27 14:23 | 28.04520 | -16.58164 | 226 ft | 4 kts | 333° |
| 2026-04-27 14:23 | 28.04497 | -16.58149 | 226 ft | 4 kts | 322° |
| 2026-04-27 14:24 | 28.04479 | -16.58128 | 224 ft | 4 kts | 293° |
| 2026-04-27 14:24 | 28.04476 | -16.58108 | 224 ft | 0 kts | 248° |
| 2026-04-27 14:26 | 28.04472 | -16.58118 | 225 ft | 4 kts | 248° |
| 2026-04-27 14:27 | 28.04451 | -16.58177 | 223 ft | 11 kts | 248° |
| 2026-04-27 14:27 | 28.04382 | -16.58203 | 222 ft | 13 kts | 161° |
| 2026-04-27 14:27 | 28.04299 | -16.58200 | 223 ft | 12 kts | 219° |
| 2026-04-27 14:27 | 28.04265 | -16.58288 | 222 ft | 12 kts | 245° |
| 2026-04-27 14:28 | 28.04238 | -16.58375 | 222 ft | 12 kts | 251° |
| 2026-04-27 14:28 | 28.04208 | -16.58461 | 222 ft | 12 kts | 249° |
| 2026-04-27 14:28 | 28.04192 | -16.58519 | 222 ft | 11 kts | 256° |
| 2026-04-27 14:28 | 28.04167 | -16.58606 | 221 ft | 9 kts | 249° |
| 2026-04-27 14:29 | 28.04140 | -16.58684 | 219 ft | 13 kts | 249° |
| 2026-04-27 14:29 | 28.04100 | -16.58799 | 216 ft | 18 kts | 248° |
| 2026-04-27 14:29 | 28.04050 | -16.58922 | 208 ft | 17 kts | 242° |
| 2026-04-27 14:29 | 28.03976 | -16.58997 | 210 ft | 12 kts | 166° |
| 2026-04-27 14:30 | 28.03918 | -16.58907 | 209 ft | 18 kts | 118° |
| 2026-04-27 14:30 | 28.03918 | -16.58768 | 205 ft | 19 kts | 70° |
| 2026-04-27 14:30 | 28.04000 | -16.58532 | 202 ft | 59 kts | 68° |
| 2026-04-27 14:30 | 28.04236 | -16.57852 | 198 ft | 124 kts | 69° |
| 2026-04-27 14:31 | 28.04607 | -16.56755 | 297 ft | 165 kts | 69° |
| 2026-04-27 14:31 | 28.05048 | -16.55595 | 1014 ft | 166 kts | 69° |
| 2026-04-27 14:31 | 28.05520 | -16.54273 | 1374 ft | 194 kts | 69° |
| 2026-04-27 14:31 | 28.05984 | -16.52829 | 2138 ft | 194 kts | 70° |
| 2026-04-27 14:32 | 28.06460 | -16.51389 | 2850 ft | 201 kts | 69° |
| 2026-04-27 14:32 | 28.06992 | -16.49818 | 3044 ft | 227 kts | 69° |
| 2026-04-27 14:32 | 28.07571 | -16.48128 | 3412 ft | 239 kts | 68° |
| 2026-04-27 14:32 | 28.08193 | -16.46365 | 3984 ft | 243 kts | 67° |
| 2026-04-27 14:33 | 28.08826 | -16.44591 | 4666 ft | 244 kts | 67° |
| 2026-04-27 14:33 | 28.09456 | -16.42730 | 5068 ft | 262 kts | 65° |
| 2026-04-27 14:33 | 28.10566 | -16.41116 | 5697 ft | 264 kts | 31° |
| 2026-04-27 14:33 | 28.12303 | -16.40519 | 6473 ft | 264 kts | 4° |
| 2026-04-27 14:34 | 28.14143 | -16.40365 | 7186 ft | 268 kts | 5° |
| 2026-04-27 14:34 | 28.16019 | -16.40190 | 7877 ft | 272 kts | 5° |
| 2026-04-27 14:34 | 28.17922 | -16.40009 | 8589 ft | 276 kts | 5° |
| 2026-04-27 14:34 | 28.19815 | -16.39822 | 9301 ft | 279 kts | 5° |
| 2026-04-27 14:35 | 28.21765 | -16.39624 | 10018 ft | 283 kts | 5° |
| 2026-04-27 14:35 | 28.23751 | -16.39419 | 10485 ft | 295 kts | 5° |
| 2026-04-27 14:35 | 28.25871 | -16.39196 | 10677 ft | 316 kts | 5° |
| 2026-04-27 14:35 | 28.28133 | -16.38956 | 10853 ft | 335 kts | 5° |
| 2026-04-27 14:36 | 28.30521 | -16.38698 | 11007 ft | 355 kts | 5° |
| 2026-04-27 14:36 | 28.33044 | -16.38425 | 11154 ft | 373 kts | 5° |
| 2026-04-27 14:36 | 28.35670 | -16.38138 | 11426 ft | 384 kts | 4° |
| 2026-04-27 14:36 | 28.38311 | -16.37847 | 11875 ft | 389 kts | 5° |
| 2026-04-27 14:37 | 28.41022 | -16.37548 | 12375 ft | 393 kts | 4° |
| 2026-04-27 14:37 | 28.43749 | -16.37247 | 12944 ft | 395 kts | 4° |
| 2026-04-27 14:37 | 28.46498 | -16.36945 | 13429 ft | 399 kts | 4° |
| 2026-04-27 14:37 | 28.49281 | -16.36636 | 13933 ft | 402 kts | 4° |
| 2026-04-27 14:38 | 28.52077 | -16.36326 | 14378 ft | 406 kts | 4° |
| 2026-04-27 14:38 | 28.54900 | -16.36013 | 14825 ft | 409 kts | 4° |
| 2026-04-27 14:38 | 28.57746 | -16.35698 | 15260 ft | 412 kts | 4° |
| 2026-04-27 14:38 | 28.60612 | -16.35380 | 15718 ft | 415 kts | 4° |
| 2026-04-27 14:39 | 28.63451 | -16.35065 | 16168 ft | 417 kts | 4° |
| 2026-04-27 14:39 | 28.66346 | -16.34744 | 16615 ft | 420 kts | 4° |
| 2026-04-27 14:39 | 28.69262 | -16.34418 | 17054 ft | 422 kts | 4° |
| 2026-04-27 14:39 | 28.72197 | -16.34093 | 17462 ft | 425 kts | 4° |
| 2026-04-27 14:40 | 28.75145 | -16.33766 | 17881 ft | 427 kts | 4° |
| 2026-04-27 14:40 | 28.78114 | -16.33437 | 18292 ft | 430 kts | 4° |
| 2026-04-27 14:40 | 28.81096 | -16.33106 | 18655 ft | 432 kts | 4° |
| 2026-04-27 14:40 | 28.84086 | -16.32773 | 19136 ft | 430 kts | 5° |
| 2026-04-27 14:41 | 28.87037 | -16.32444 | 19516 ft | 432 kts | 4° |
| 2026-04-27 14:41 | 28.90033 | -16.32110 | 19881 ft | 434 kts | 5° |
| 2026-04-27 14:41 | 28.93057 | -16.31773 | 20183 ft | 438 kts | 5° |
| 2026-04-27 14:41 | 28.96090 | -16.31435 | 20622 ft | 438 kts | 4° |
| 2026-04-27 14:42 | 28.99133 | -16.31095 | 20852 ft | 443 kts | 4° |
| 2026-04-27 14:42 | 29.02201 | -16.30753 | 21287 ft | 442 kts | 5° |
| 2026-04-27 14:42 | 29.05268 | -16.30410 | 21611 ft | 445 kts | 4° |
| 2026-04-27 14:42 | 29.08361 | -16.30065 | 21931 ft | 447 kts | 5° |
| 2026-04-27 14:43 | 29.11422 | -16.29722 | 22257 ft | 449 kts | 5° |
| 2026-04-27 14:43 | 29.14532 | -16.29374 | 22600 ft | 450 kts | 5° |
| 2026-04-27 14:43 | 29.17655 | -16.29024 | 22913 ft | 452 kts | 5° |
| 2026-04-27 14:43 | 29.20793 | -16.28672 | 23191 ft | 454 kts | 5° |
| 2026-04-27 14:44 | 29.23943 | -16.28319 | 23482 ft | 456 kts | 5° |
| 2026-04-27 14:44 | 29.27115 | -16.27963 | 23733 ft | 458 kts | 5° |
| 2026-04-27 14:44 | 29.30292 | -16.27607 | 23971 ft | 460 kts | 5° |
| 2026-04-27 14:44 | 29.33476 | -16.27249 | 24209 ft | 461 kts | 4° |
| 2026-04-27 14:45 | 29.36676 | -16.26889 | 24457 ft | 462 kts | 4° |
| 2026-04-27 14:45 | 29.39887 | -16.26528 | 24686 ft | 464 kts | 4° |
| 2026-04-27 14:45 | 29.43065 | -16.26170 | 24867 ft | 467 kts | 4° |
| 2026-04-27 14:45 | 29.46307 | -16.25805 | 25081 ft | 469 kts | 4° |
| 2026-04-27 14:46 | 29.49546 | -16.25440 | 25403 ft | 468 kts | 4° |
| 2026-04-27 14:46 | 29.52782 | -16.25075 | 25752 ft | 466 kts | 4° |
| 2026-04-27 14:46 | 29.56004 | -16.24711 | 26106 ft | 465 kts | 4° |
| 2026-04-27 14:46 | 29.59223 | -16.24347 | 26430 ft | 464 kts | 4° |
| 2026-04-27 14:47 | 29.62435 | -16.23984 | 26761 ft | 464 kts | 4° |
| 2026-04-27 14:47 | 29.65642 | -16.23622 | 27107 ft | 462 kts | 4° |
| 2026-04-27 14:47 | 29.68842 | -16.23260 | 27476 ft | 461 kts | 4° |
| 2026-04-27 14:47 | 29.71989 | -16.22903 | 27828 ft | 460 kts | 4° |
| 2026-04-27 14:48 | 29.75171 | -16.22543 | 28171 ft | 459 kts | 4° |
| 2026-04-27 14:48 | 29.81522 | -16.21823 | 28882 ft | 457 kts | 4° |
| 2026-04-27 14:48 | 29.84682 | -16.21464 | 29260 ft | 456 kts | 4° |
| 2026-04-27 14:49 | 29.87837 | -16.21106 | 29619 ft | 455 kts | 4° |
| 2026-04-27 14:49 | 29.90986 | -16.20748 | 29978 ft | 454 kts | 4° |
| 2026-04-27 14:49 | 29.94122 | -16.20391 | 30305 ft | 453 kts | 4° |
| 2026-04-27 14:49 | 29.97260 | -16.20034 | 30584 ft | 452 kts | 3° |
| 2026-04-27 14:50 | 30.00344 | -16.19684 | 30857 ft | 451 kts | 3° |
| 2026-04-27 14:50 | 30.03461 | -16.19328 | 31205 ft | 449 kts | 3° |
| 2026-04-27 14:50 | 30.06558 | -16.18975 | 31561 ft | 446 kts | 3° |
| 2026-04-27 14:50 | 30.09642 | -16.18623 | 31881 ft | 444 kts | 3° |
| 2026-04-27 14:51 | 30.12713 | -16.18272 | 32167 ft | 443 kts | 2° |
| 2026-04-27 14:51 | 30.15777 | -16.17922 | 32462 ft | 442 kts | 2° |
| 2026-04-27 14:51 | 30.18829 | -16.17573 | 32778 ft | 440 kts | 2° |
| 2026-04-27 14:51 | 30.21871 | -16.17225 | 33090 ft | 438 kts | 2° |
| 2026-04-27 14:52 | 30.24903 | -16.16879 | 33332 ft | 438 kts | 2° |
| 2026-04-27 14:52 | 30.27907 | -16.16536 | 33426 ft | 441 kts | 2° |
| 2026-04-27 14:52 | 30.30959 | -16.16187 | 33647 ft | 441 kts | 2° |
| 2026-04-27 14:52 | 30.34001 | -16.15838 | 34011 ft | 437 kts | 2° |
| 2026-04-27 14:53 | 30.37017 | -16.15491 | 34298 ft | 435 kts | 2° |
| 2026-04-27 14:53 | 30.40030 | -16.15145 | 34455 ft | 435 kts | 2° |
| 2026-04-27 14:53 | 30.43045 | -16.14799 | 34567 ft | 437 kts | 2° |
| 2026-04-27 14:53 | 30.46073 | -16.14452 | 34725 ft | 437 kts | 2° |
| 2026-04-27 14:54 | 30.49099 | -16.14104 | 34943 ft | 436 kts | 2° |
| 2026-04-27 14:54 | 30.52073 | -16.13761 | 35115 ft | 436 kts | 2° |
| 2026-04-27 14:54 | 30.55090 | -16.13414 | 35243 ft | 437 kts | 2° |
| 2026-04-27 14:54 | 30.58120 | -16.13065 | 35378 ft | 437 kts | 2° |
| 2026-04-27 14:55 | 30.61144 | -16.12717 | 35556 ft | 436 kts | 2° |
| 2026-04-27 14:55 | 30.64163 | -16.12368 | 35757 ft | 436 kts | 2° |
| 2026-04-27 14:55 | 30.67174 | -16.12020 | 35909 ft | 435 kts | 2° |
| 2026-04-27 14:55 | 30.70191 | -16.11672 | 36036 ft | 436 kts | 2° |
| 2026-04-27 14:56 | 30.76252 | -16.10972 | 36069 ft | 438 kts | 2° |
| 2026-04-27 14:56 | 30.82259 | -16.10276 | 36074 ft | 436 kts | 2° |
| 2026-04-27 14:57 | 30.88291 | -16.09577 | 36077 ft | 435 kts | 2° |
| 2026-04-27 14:57 | 30.94306 | -16.08879 | 36077 ft | 434 kts | 2° |
| 2026-04-27 14:58 | 31.00316 | -16.08180 | 36075 ft | 434 kts | 2° |
| 2026-04-27 14:58 | 31.06281 | -16.07487 | 36090 ft | 434 kts | 2° |
| 2026-04-27 14:59 | 31.12292 | -16.06787 | 36083 ft | 435 kts | 2° |
| 2026-04-27 14:59 | 31.18318 | -16.06084 | 36076 ft | 436 kts | 2° |
| 2026-04-27 15:00 | 31.24356 | -16.05379 | 36079 ft | 437 kts | 2° |
| 2026-04-27 15:00 | 31.30418 | -16.04670 | 36078 ft | 438 kts | 2° |
| 2026-04-27 15:01 | 31.36454 | -16.03963 | 36079 ft | 440 kts | 3° |
| 2026-04-27 15:01 | 31.42545 | -16.03264 | 36075 ft | 440 kts | 1° |
| 2026-04-27 15:02 | 31.48662 | -16.02943 | 36076 ft | 440 kts | 359° |
| 2026-04-27 15:02 | 31.54781 | -16.02784 | 36076 ft | 440 kts | 359° |
| 2026-04-27 15:03 | 31.60862 | -16.02610 | 36087 ft | 440 kts | 359° |
| 2026-04-27 15:03 | 31.66983 | -16.02403 | 36076 ft | 440 kts | 359° |
| 2026-04-27 15:04 | 31.73104 | -16.02183 | 36088 ft | 440 kts | 359° |
| 2026-04-27 15:04 | 31.79230 | -16.01959 | 36086 ft | 440 kts | 359° |
| 2026-04-27 15:05 | 31.85348 | -16.01735 | 36088 ft | 440 kts | 359° |
| 2026-04-27 15:05 | 31.91425 | -16.01514 | 36077 ft | 440 kts | 359° |
| 2026-04-27 15:06 | 31.97538 | -16.01291 | 36084 ft | 440 kts | 359° |
| 2026-04-27 15:06 | 32.03656 | -16.01068 | 36081 ft | 439 kts | 359° |
| 2026-04-27 15:07 | 32.09764 | -16.00845 | 36092 ft | 439 kts | 359° |
| 2026-04-27 15:07 | 32.15880 | -16.00621 | 36086 ft | 440 kts | 360° |
| 2026-04-27 15:08 | 32.21952 | -16.00399 | 36093 ft | 440 kts | 360° |
| 2026-04-27 15:08 | 32.28072 | -16.00174 | 36095 ft | 440 kts | 360° |
| 2026-04-27 15:09 | 32.34184 | -15.99950 | 36084 ft | 440 kts | 360° |
| 2026-04-27 15:09 | 32.40309 | -15.99724 | 36086 ft | 440 kts | 360° |
| 2026-04-27 15:10 | 32.46390 | -15.99501 | 36094 ft | 440 kts | 360° |
| 2026-04-27 15:10 | 32.52518 | -15.99275 | 36098 ft | 441 kts | 360° |
| 2026-04-27 15:11 | 32.58655 | -15.99047 | 36092 ft | 442 kts | 360° |
| 2026-04-27 15:11 | 32.64807 | -15.98820 | 36095 ft | 442 kts | 360° |
| 2026-04-27 15:12 | 32.70968 | -15.98592 | 36092 ft | 443 kts | 0° |
| 2026-04-27 15:12 | 32.77099 | -15.98364 | 36090 ft | 444 kts | 0° |
| 2026-04-27 15:13 | 32.83276 | -15.98135 | 36093 ft | 444 kts | 0° |
| 2026-04-27 15:13 | 32.89456 | -15.97905 | 36093 ft | 445 kts | 0° |
| 2026-04-27 15:14 | 32.95643 | -15.97675 | 36096 ft | 445 kts | 0° |
| 2026-04-27 15:14 | 33.01833 | -15.97444 | 36098 ft | 445 kts | 0° |
| 2026-04-27 15:15 | 33.07978 | -15.97215 | 36100 ft | 444 kts | 0° |
| 2026-04-27 15:15 | 33.14155 | -15.96983 | 36098 ft | 444 kts | 360° |
| 2026-04-27 15:16 | 33.20331 | -15.96750 | 36101 ft | 444 kts | 0° |
| 2026-04-27 15:16 | 33.26497 | -15.96519 | 36097 ft | 443 kts | 0° |
| 2026-04-27 15:17 | 33.32657 | -15.96289 | 36094 ft | 443 kts | 0° |
| 2026-04-27 15:17 | 33.38776 | -15.96059 | 36095 ft | 443 kts | 0° |
| 2026-04-27 15:18 | 33.44928 | -15.95828 | 36104 ft | 442 kts | 0° |
| 2026-04-27 15:18 | 33.51080 | -15.95596 | 36099 ft | 442 kts | 0° |
| 2026-04-27 15:19 | 33.57229 | -15.95363 | 36104 ft | 442 kts | 0° |
| 2026-04-27 15:19 | 33.63378 | -15.95130 | 36102 ft | 442 kts | 1° |
| 2026-04-27 15:20 | 33.69481 | -15.94594 | 36096 ft | 444 kts | 7° |
| 2026-04-27 15:20 | 33.75554 | -15.93271 | 36095 ft | 444 kts | 9° |
| 2026-04-27 15:21 | 33.81614 | -15.91867 | 36101 ft | 443 kts | 9° |
| 2026-04-27 15:21 | 33.87681 | -15.90510 | 36103 ft | 443 kts | 9° |
| 2026-04-27 15:22 | 33.93754 | -15.89186 | 36098 ft | 443 kts | 8° |
| 2026-04-27 15:22 | 33.99786 | -15.87883 | 36105 ft | 443 kts | 9° |
| 2026-04-27 15:23 | 34.05853 | -15.86569 | 36105 ft | 443 kts | 9° |
| 2026-04-27 15:23 | 34.11929 | -15.85252 | 36103 ft | 443 kts | 9° |
| 2026-04-27 15:24 | 34.17961 | -15.83940 | 36103 ft | 443 kts | 9° |
| 2026-04-27 15:24 | 34.24022 | -15.82621 | 36111 ft | 443 kts | 9° |
| 2026-04-27 15:25 | 34.30088 | -15.81297 | 36103 ft | 443 kts | 9° |
| 2026-04-27 15:25 | 34.36156 | -15.79970 | 36101 ft | 443 kts | 9° |
| 2026-04-27 15:26 | 34.42218 | -15.78643 | 36108 ft | 442 kts | 8° |
| 2026-04-27 15:26 | 34.48276 | -15.77319 | 36104 ft | 442 kts | 9° |
| 2026-04-27 15:27 | 34.54294 | -15.76001 | 36100 ft | 443 kts | 9° |
| 2026-04-27 15:27 | 34.60358 | -15.74668 | 36104 ft | 443 kts | 9° |
| 2026-04-27 15:28 | 34.66423 | -15.73334 | 36106 ft | 443 kts | 9° |
| 2026-04-27 15:28 | 34.72487 | -15.71998 | 36108 ft | 443 kts | 9° |
| 2026-04-27 15:29 | 34.78557 | -15.70657 | 36107 ft | 443 kts | 9° |
| 2026-04-27 15:29 | 34.84585 | -15.69324 | 36111 ft | 443 kts | 9° |
| 2026-04-27 15:30 | 34.90658 | -15.67980 | 36099 ft | 443 kts | 9° |
| 2026-04-27 15:30 | 34.96727 | -15.66636 | 36105 ft | 443 kts | 9° |
| 2026-04-27 15:31 | 35.02799 | -15.65287 | 36102 ft | 443 kts | 9° |
| 2026-04-27 15:31 | 35.08827 | -15.63949 | 36101 ft | 443 kts | 8° |
| 2026-04-27 15:32 | 35.14896 | -15.62600 | 36109 ft | 443 kts | 9° |
| 2026-04-27 15:32 | 35.20968 | -15.61243 | 36104 ft | 443 kts | 8° |
| 2026-04-27 15:33 | 35.27037 | -15.59886 | 36106 ft | 443 kts | 9° |
| 2026-04-27 15:33 | 35.33113 | -15.58531 | 36112 ft | 444 kts | 8° |
| 2026-04-27 15:34 | 35.39145 | -15.57180 | 36104 ft | 444 kts | 9° |
| 2026-04-27 15:34 | 35.45221 | -15.55814 | 36105 ft | 444 kts | 9° |
| 2026-04-27 15:35 | 35.51303 | -15.54449 | 36112 ft | 444 kts | 9° |
| 2026-04-27 15:35 | 35.57384 | -15.53081 | 36114 ft | 445 kts | 8° |
| 2026-04-27 15:36 | 35.63432 | -15.51718 | 36105 ft | 445 kts | 9° |
| 2026-04-27 15:36 | 35.69515 | -15.50343 | 36115 ft | 445 kts | 8° |
| 2026-04-27 15:37 | 35.75603 | -15.48966 | 36098 ft | 445 kts | 9° |
| 2026-04-27 15:37 | 35.81688 | -15.47593 | 36098 ft | 445 kts | 9° |
| 2026-04-27 15:38 | 35.87768 | -15.46210 | 36111 ft | 444 kts | 8° |
| 2026-04-27 15:38 | 35.93806 | -15.44839 | 36109 ft | 444 kts | 10° |
| 2026-04-27 15:39 | 35.99889 | -15.43454 | 36105 ft | 444 kts | 8° |
| 2026-04-27 15:39 | 36.05970 | -15.42068 | 36112 ft | 445 kts | 9° |
| 2026-04-27 15:40 | 36.12055 | -15.40680 | 36108 ft | 445 kts | 9° |
| 2026-04-27 15:40 | 36.18109 | -15.39298 | 36109 ft | 445 kts | 9° |
| 2026-04-27 15:41 | 36.24264 | -15.38567 | 36118 ft | 444 kts | 1° |
| 2026-04-27 15:41 | 36.30450 | -15.38340 | 36097 ft | 445 kts | 360° |
| 2026-04-27 15:42 | 36.36635 | -15.38122 | 36097 ft | 445 kts | 1° |
| 2026-04-27 15:42 | 36.42785 | -15.37857 | 36105 ft | 445 kts | 1° |
| 2026-04-27 15:43 | 36.48976 | -15.37560 | 36104 ft | 445 kts | 1° |
| 2026-04-27 15:43 | 36.55164 | -15.37253 | 36121 ft | 445 kts | 2° |
| 2026-04-27 15:44 | 36.61361 | -15.36946 | 36118 ft | 446 kts | 1° |
| 2026-04-27 15:44 | 36.67560 | -15.36638 | 36125 ft | 446 kts | 1° |
| 2026-04-27 15:45 | 36.73719 | -15.36332 | 36121 ft | 446 kts | 1° |
| 2026-04-27 15:45 | 36.79934 | -15.36024 | 36112 ft | 447 kts | 0° |
| 2026-04-27 15:46 | 36.86154 | -15.35718 | 36113 ft | 447 kts | 1° |
| 2026-04-27 15:46 | 36.92381 | -15.35405 | 36117 ft | 448 kts | 360° |
| 2026-04-27 15:47 | 36.98569 | -15.35098 | 36109 ft | 448 kts | 2° |
| 2026-04-27 15:47 | 37.04808 | -15.34791 | 36112 ft | 449 kts | 0° |
| 2026-04-27 15:48 | 37.11052 | -15.34478 | 36113 ft | 449 kts | 1° |
| 2026-04-27 15:49 | 37.20422 | -15.34008 | 36121 ft | 450 kts | 0° |
| 2026-04-27 15:49 | 37.26634 | -15.33702 | 36122 ft | 450 kts | 1° |
| 2026-04-27 15:50 | 37.32898 | -15.33384 | 36122 ft | 451 kts | 1° |
| 2026-04-27 15:50 | 37.39167 | -15.33063 | 36113 ft | 451 kts | 0° |
| 2026-04-27 15:51 | 37.45403 | -15.32750 | 36119 ft | 451 kts | 2° |
| 2026-04-27 15:51 | 37.51676 | -15.32436 | 36116 ft | 451 kts | 0° |
| 2026-04-27 15:52 | 37.57951 | -15.32120 | 36114 ft | 451 kts | 1° |
| 2026-04-27 15:52 | 37.64228 | -15.31805 | 36114 ft | 451 kts | 0° |
| 2026-04-27 15:53 | 37.70505 | -15.31487 | 36110 ft | 451 kts | 1° |
| 2026-04-27 15:53 | 37.76736 | -15.31168 | 36125 ft | 451 kts | 0° |
| 2026-04-27 15:54 | 37.83013 | -15.30847 | 36130 ft | 451 kts | 359° |
| 2026-04-27 15:54 | 37.89288 | -15.30529 | 36131 ft | 451 kts | 1° |
| 2026-04-27 15:55 | 37.95568 | -15.30203 | 36124 ft | 452 kts | 0° |
| 2026-04-27 15:55 | 38.01812 | -15.29885 | 36120 ft | 452 kts | 0° |
| 2026-04-27 15:56 | 38.08108 | -15.29570 | 36123 ft | 453 kts | 360° |
| 2026-04-27 15:56 | 38.14407 | -15.29245 | 36125 ft | 453 kts | 360° |
| 2026-04-27 15:57 | 38.20715 | -15.28921 | 36129 ft | 454 kts | 0° |
| 2026-04-27 15:57 | 38.27039 | -15.28594 | 36135 ft | 455 kts | 2° |
| 2026-04-27 15:58 | 38.33326 | -15.28269 | 36128 ft | 456 kts | 360° |
| 2026-04-27 15:58 | 38.39666 | -15.27942 | 36134 ft | 456 kts | 359° |
| 2026-04-27 15:59 | 38.46015 | -15.27605 | 36130 ft | 457 kts | 0° |
| 2026-04-27 15:59 | 38.52373 | -15.27282 | 36127 ft | 457 kts | 0° |
| 2026-04-27 16:00 | 38.58688 | -15.26956 | 36135 ft | 458 kts | 360° |
| 2026-04-27 16:00 | 38.65053 | -15.26625 | 36135 ft | 458 kts | 360° |
| 2026-04-27 16:01 | 38.71418 | -15.26297 | 36137 ft | 458 kts | 0° |
| 2026-04-27 16:01 | 38.77782 | -15.25961 | 36132 ft | 458 kts | 2° |
| 2026-04-27 16:02 | 38.84149 | -15.25628 | 36136 ft | 458 kts | 1° |
| 2026-04-27 16:02 | 38.90468 | -15.25298 | 36138 ft | 457 kts | 360° |
| 2026-04-27 16:03 | 38.96816 | -15.24960 | 36143 ft | 457 kts | 359° |
| 2026-04-27 16:03 | 39.03177 | -15.24626 | 36153 ft | 457 kts | 0° |
| 2026-04-27 16:04 | 39.09486 | -15.24297 | 36140 ft | 457 kts | 0° |
| 2026-04-27 16:04 | 39.15828 | -15.23962 | 36137 ft | 456 kts | 359° |
| 2026-04-27 16:05 | 39.22167 | -15.23624 | 36143 ft | 456 kts | 359° |
| 2026-04-27 16:05 | 39.28504 | -15.23289 | 36143 ft | 456 kts | 359° |
| 2026-04-27 16:06 | 39.34795 | -15.22960 | 36143 ft | 455 kts | 1° |
| 2026-04-27 16:06 | 39.41120 | -15.22621 | 36149 ft | 455 kts | 1° |
| 2026-04-27 16:07 | 39.47443 | -15.22284 | 36158 ft | 454 kts | 0° |
| 2026-04-27 16:07 | 39.53756 | -15.21944 | 36155 ft | 453 kts | 359° |
| 2026-04-27 16:08 | 39.60000 | -15.21605 | 36141 ft | 452 kts | 1° |
| 2026-04-27 16:08 | 39.66273 | -15.21275 | 36136 ft | 451 kts | 0° |
| 2026-04-27 16:09 | 39.72533 | -15.20939 | 36139 ft | 450 kts | 0° |
| 2026-04-27 16:09 | 39.81849 | -15.20438 | 36151 ft | 448 kts | 1° |
| 2026-04-27 16:10 | 39.94312 | -15.19769 | 36151 ft | 448 kts | 360° |
| 2026-04-27 16:11 | 40.03674 | -15.19254 | 36154 ft | 449 kts | 0° |
| 2026-04-27 16:12 | 40.13012 | -15.18750 | 36157 ft | 450 kts | 1° |
| 2026-04-27 16:13 | 40.22412 | -15.18243 | 36161 ft | 451 kts | 1° |
| 2026-04-27 16:13 | 40.31829 | -15.17728 | 36157 ft | 451 kts | 1° |
| 2026-04-27 16:14 | 40.44325 | -15.17040 | 36169 ft | 450 kts | 360° |
| 2026-04-27 16:15 | 40.56839 | -15.16355 | 36173 ft | 449 kts | 1° |
| 2026-04-27 16:16 | 40.69285 | -15.15671 | 36170 ft | 449 kts | 1° |
| 2026-04-27 16:17 | 40.81765 | -15.14982 | 36175 ft | 448 kts | 0° |
| 2026-04-27 16:18 | 40.94184 | -15.14287 | 36174 ft | 448 kts | 1° |
| 2026-04-27 16:19 | 41.00405 | -15.13944 | 36175 ft | 448 kts | 1° |
| 2026-04-27 16:20 | 41.12801 | -15.13246 | 36172 ft | 447 kts | 1° |
| 2026-04-27 16:21 | 41.22120 | -15.12728 | 36188 ft | 447 kts | 1° |
| 2026-04-27 16:22 | 41.34545 | -15.12030 | 36179 ft | 447 kts | 1° |
| 2026-04-27 16:22 | 41.43821 | -15.11503 | 36199 ft | 447 kts | 1° |
| 2026-04-27 16:23 | 41.53143 | -15.10977 | 36190 ft | 447 kts | 2° |
| 2026-04-27 16:24 | 41.59367 | -15.10623 | 36181 ft | 448 kts | 1° |
| 2026-04-27 16:25 | 41.71773 | -15.09918 | 36192 ft | 448 kts | 2° |
| 2026-04-27 16:26 | 41.84234 | -15.09206 | 36206 ft | 448 kts | 1° |
| 2026-04-27 16:27 | 41.96660 | -15.08492 | 36213 ft | 448 kts | 2° |
| 2026-04-27 16:27 | 42.05713 | -15.05478 | 36216 ft | 450 kts | 20° |
| 2026-04-27 16:28 | 42.11523 | -15.02325 | 36207 ft | 450 kts | 21° |
| 2026-04-27 16:29 | 42.26049 | -14.94523 | 36217 ft | 451 kts | 21° |
| 2026-04-27 16:30 | 42.37711 | -14.88319 | 36217 ft | 453 kts | 20° |
| 2026-04-27 16:31 | 42.52389 | -14.80472 | 36221 ft | 454 kts | 21° |
| 2026-04-27 16:32 | 42.61213 | -14.75733 | 36217 ft | 454 kts | 20° |
| 2026-04-27 16:33 | 42.69987 | -14.71005 | 36224 ft | 454 kts | 20° |
| 2026-04-27 16:33 | 42.74862 | -14.68374 | 36212 ft | 453 kts | 21° |
| 2026-04-27 16:34 | 42.81702 | -14.64678 | 36218 ft | 452 kts | 20° |
| 2026-04-27 16:34 | 42.87498 | -14.61537 | 36221 ft | 451 kts | 20° |
| 2026-04-27 16:35 | 42.93322 | -14.58375 | 36229 ft | 450 kts | 20° |
| 2026-04-27 16:36 | 43.02030 | -14.53631 | 36223 ft | 449 kts | 21° |
| 2026-04-27 16:36 | 43.07832 | -14.50459 | 36225 ft | 449 kts | 21° |
| 2026-04-27 16:37 | 43.13599 | -14.47302 | 36233 ft | 449 kts | 20° |
| 2026-04-27 16:37 | 43.19401 | -14.44124 | 36221 ft | 449 kts | 20° |
| 2026-04-27 16:38 | 43.25200 | -14.40940 | 36222 ft | 449 kts | 20° |
| 2026-04-27 16:38 | 43.31008 | -14.37742 | 36236 ft | 449 kts | 21° |
| 2026-04-27 16:39 | 43.36763 | -14.34571 | 36229 ft | 448 kts | 20° |
| 2026-04-27 16:39 | 43.42542 | -14.31379 | 36232 ft | 447 kts | 20° |
| 2026-04-27 16:40 | 43.48302 | -14.28184 | 36224 ft | 446 kts | 21° |
| 2026-04-27 16:40 | 43.54056 | -14.24993 | 36231 ft | 445 kts | 20° |
| 2026-04-27 16:41 | 43.59797 | -14.21800 | 36235 ft | 445 kts | 20° |
| 2026-04-27 16:41 | 43.65493 | -14.18622 | 36233 ft | 445 kts | 20° |
| 2026-04-27 16:42 | 43.71236 | -14.15415 | 36234 ft | 445 kts | 21° |
| 2026-04-27 16:42 | 43.76986 | -14.12198 | 36253 ft | 446 kts | 20° |
| 2026-04-27 16:43 | 43.82743 | -14.08971 | 36238 ft | 447 kts | 20° |
| 2026-04-27 16:43 | 43.88461 | -14.05757 | 36237 ft | 446 kts | 20° |
| 2026-04-27 16:44 | 43.94215 | -14.02517 | 36243 ft | 446 kts | 20° |
| 2026-04-27 16:44 | 43.99969 | -13.99270 | 36242 ft | 446 kts | 21° |
| 2026-04-27 16:45 | 44.05679 | -13.96040 | 36244 ft | 446 kts | 21° |
| 2026-04-27 16:45 | 44.11423 | -13.92787 | 36245 ft | 446 kts | 21° |
| 2026-04-27 16:46 | 44.17157 | -13.89530 | 36248 ft | 445 kts | 21° |
| 2026-04-27 16:46 | 44.22899 | -13.86263 | 36249 ft | 445 kts | 21° |
| 2026-04-27 16:47 | 44.28632 | -13.82995 | 36247 ft | 445 kts | 21° |
| 2026-04-27 16:47 | 44.34332 | -13.79736 | 36246 ft | 445 kts | 21° |
| 2026-04-27 16:48 | 44.40060 | -13.76456 | 36253 ft | 445 kts | 21° |
| 2026-04-27 16:48 | 44.45785 | -13.73170 | 36251 ft | 445 kts | 21° |
| 2026-04-27 16:49 | 44.53404 | -13.68786 | 36254 ft | 445 kts | 21° |
| 2026-04-27 16:49 | 44.60055 | -13.64949 | 36255 ft | 445 kts | 21° |
| 2026-04-27 16:50 | 44.65774 | -13.61643 | 36256 ft | 444 kts | 21° |
| 2026-04-27 16:50 | 44.71480 | -13.58335 | 36249 ft | 444 kts | 21° |
| 2026-04-27 16:51 | 44.76219 | -13.55584 | 36259 ft | 444 kts | 21° |
| 2026-04-27 16:51 | 44.82849 | -13.51727 | 36262 ft | 443 kts | 21° |
| 2026-04-27 16:52 | 44.87582 | -13.48967 | 36259 ft | 443 kts | 22° |
| 2026-04-27 16:52 | 44.93275 | -13.45640 | 36270 ft | 443 kts | 21° |
| 2026-04-27 16:53 | 44.98961 | -13.42315 | 36266 ft | 443 kts | 21° |
| 2026-04-27 16:53 | 45.05815 | -13.39469 | 36262 ft | 442 kts | 13° |
| 2026-04-27 16:54 | 45.10789 | -13.37851 | 36262 ft | 442 kts | 13° |
| 2026-04-27 16:54 | 45.16775 | -13.35890 | 36263 ft | 442 kts | 13° |
| 2026-04-27 16:55 | 45.22748 | -13.33866 | 36264 ft | 441 kts | 14° |
| 2026-04-27 16:55 | 45.29680 | -13.31472 | 36268 ft | 441 kts | 14° |
| 2026-04-27 16:56 | 45.34637 | -13.29749 | 36267 ft | 441 kts | 14° |
| 2026-04-27 16:56 | 45.40593 | -13.27676 | 36270 ft | 441 kts | 14° |
| 2026-04-27 16:57 | 45.46544 | -13.25601 | 36268 ft | 441 kts | 14° |
| 2026-04-27 16:57 | 45.52499 | -13.23521 | 36272 ft | 440 kts | 14° |
| 2026-04-27 16:58 | 45.58447 | -13.21439 | 36274 ft | 440 kts | 14° |
| 2026-04-27 16:58 | 45.64354 | -13.19367 | 36277 ft | 439 kts | 14° |
| 2026-04-27 16:59 | 45.70284 | -13.17283 | 36271 ft | 439 kts | 14° |
| 2026-04-27 16:59 | 45.76208 | -13.15195 | 36277 ft | 438 kts | 14° |
| 2026-04-27 17:00 | 45.85027 | -13.12080 | 36282 ft | 436 kts | 15° |
| 2026-04-27 17:01 | 45.90922 | -13.09991 | 36291 ft | 436 kts | 14° |
| 2026-04-27 17:01 | 45.96809 | -13.07901 | 36284 ft | 436 kts | 14° |
| 2026-04-27 17:02 | 46.02685 | -13.05811 | 36281 ft | 435 kts | 14° |
| 2026-04-27 17:02 | 46.08559 | -13.03716 | 36288 ft | 435 kts | 14° |
| 2026-04-27 17:03 | 46.14395 | -13.01630 | 36283 ft | 435 kts | 14° |
| 2026-04-27 17:03 | 46.20265 | -12.99528 | 36280 ft | 435 kts | 15° |
| 2026-04-27 17:04 | 46.26130 | -12.97423 | 36287 ft | 434 kts | 15° |
| 2026-04-27 17:04 | 46.31994 | -12.95313 | 36287 ft | 434 kts | 15° |
| 2026-04-27 17:05 | 46.37811 | -12.93216 | 36296 ft | 434 kts | 15° |
| 2026-04-27 17:05 | 46.43669 | -12.91099 | 36291 ft | 434 kts | 15° |
| 2026-04-27 17:06 | 46.49527 | -12.88979 | 36288 ft | 433 kts | 15° |
| 2026-04-27 17:06 | 46.55373 | -12.86857 | 36287 ft | 433 kts | 15° |
| 2026-04-27 17:07 | 46.61178 | -12.84745 | 36292 ft | 433 kts | 15° |
| 2026-04-27 17:07 | 46.67017 | -12.82616 | 36279 ft | 432 kts | 15° |
| 2026-04-27 17:08 | 46.72841 | -12.80489 | 36291 ft | 431 kts | 15° |
| 2026-04-27 17:08 | 46.78663 | -12.78357 | 36291 ft | 431 kts | 15° |
| 2026-04-27 17:09 | 46.84477 | -12.76223 | 36293 ft | 430 kts | 15° |
| 2026-04-27 17:09 | 46.90235 | -12.74105 | 36288 ft | 430 kts | 16° |
| 2026-04-27 17:10 | 46.96031 | -12.71969 | 36295 ft | 429 kts | 16° |
| 2026-04-27 17:10 | 47.01822 | -12.69830 | 36296 ft | 429 kts | 16° |
| 2026-04-27 17:11 | 47.07599 | -12.67690 | 36299 ft | 428 kts | 16° |
| 2026-04-27 17:11 | 47.16218 | -12.64490 | 36301 ft | 427 kts | 16° |
| 2026-04-27 17:12 | 47.24866 | -12.61269 | 36302 ft | 427 kts | 16° |
| 2026-04-27 17:13 | 47.30624 | -12.59117 | 36309 ft | 427 kts | 16° |
| 2026-04-27 17:13 | 47.36342 | -12.56976 | 36303 ft | 427 kts | 16° |
| 2026-04-27 17:14 | 47.42096 | -12.54817 | 36313 ft | 427 kts | 16° |
| 2026-04-27 17:14 | 47.47854 | -12.52651 | 36310 ft | 427 kts | 16° |
| 2026-04-27 17:15 | 47.53608 | -12.50482 | 36311 ft | 427 kts | 16° |
| 2026-04-27 17:15 | 47.59368 | -12.48306 | 36311 ft | 427 kts | 16° |
| 2026-04-27 17:16 | 47.65118 | -12.46128 | 36316 ft | 427 kts | 17° |
| 2026-04-27 17:16 | 47.70836 | -12.43958 | 36313 ft | 427 kts | 17° |
| 2026-04-27 17:17 | 47.76586 | -12.41770 | 36307 ft | 427 kts | 17° |
| 2026-04-27 17:17 | 47.82341 | -12.39576 | 36313 ft | 427 kts | 17° |
| 2026-04-27 17:18 | 47.90926 | -12.36294 | 36320 ft | 427 kts | 17° |
| 2026-04-27 17:18 | 47.96677 | -12.34088 | 36327 ft | 427 kts | 17° |
| 2026-04-27 17:19 | 48.02431 | -12.31876 | 36315 ft | 427 kts | 17° |
| 2026-04-27 17:19 | 48.08179 | -12.29662 | 36331 ft | 427 kts | 17° |
| 2026-04-27 17:20 | 48.13922 | -12.27445 | 36332 ft | 427 kts | 17° |
| 2026-04-27 17:20 | 48.19639 | -12.25232 | 36328 ft | 427 kts | 17° |
| 2026-04-27 17:21 | 48.25387 | -12.23002 | 36326 ft | 427 kts | 17° |
| 2026-04-27 17:21 | 48.31137 | -12.20766 | 36326 ft | 427 kts | 17° |
| 2026-04-27 17:22 | 48.36886 | -12.18525 | 36326 ft | 427 kts | 17° |
| 2026-04-27 17:22 | 48.42639 | -12.16278 | 36325 ft | 427 kts | 17° |
| 2026-04-27 17:23 | 48.48351 | -12.14041 | 36330 ft | 427 kts | 17° |
| 2026-04-27 17:23 | 48.54093 | -12.11788 | 36337 ft | 427 kts | 17° |
| 2026-04-27 17:24 | 48.59840 | -12.09527 | 36335 ft | 427 kts | 17° |
| 2026-04-27 17:24 | 48.65581 | -12.07262 | 36339 ft | 427 kts | 17° |
| 2026-04-27 17:25 | 48.71287 | -12.05006 | 36329 ft | 426 kts | 17° |
| 2026-04-27 17:25 | 48.77026 | -12.02733 | 36335 ft | 426 kts | 17° |
| 2026-04-27 17:26 | 48.82721 | -12.00276 | 36327 ft | 425 kts | 24° |
| 2026-04-27 17:26 | 48.87834 | -11.95913 | 36354 ft | 421 kts | 37° |
| 2026-04-27 17:27 | 48.92550 | -11.90709 | 36355 ft | 422 kts | 37° |
| 2026-04-27 17:27 | 48.97315 | -11.85489 | 36339 ft | 423 kts | 36° |
| 2026-04-27 17:28 | 49.02106 | -11.80280 | 36346 ft | 423 kts | 36° |
| 2026-04-27 17:29 | 49.09267 | -11.72404 | 36346 ft | 423 kts | 37° |
| 2026-04-27 17:29 | 49.13974 | -11.67098 | 36338 ft | 424 kts | 37° |
| 2026-04-27 17:30 | 49.18716 | -11.61739 | 36333 ft | 424 kts | 37° |
| 2026-04-27 17:30 | 49.25823 | -11.53700 | 36349 ft | 424 kts | 37° |
| 2026-04-27 17:31 | 49.30557 | -11.48334 | 36340 ft | 424 kts | 37° |
| 2026-04-27 17:31 | 49.35261 | -11.42990 | 36343 ft | 423 kts | 37° |
| 2026-04-27 17:32 | 49.42353 | -11.34909 | 36346 ft | 423 kts | 37° |
| 2026-04-27 17:33 | 49.47077 | -11.29508 | 36348 ft | 423 kts | 37° |
| 2026-04-27 17:33 | 49.51796 | -11.24101 | 36365 ft | 423 kts | 37° |
| 2026-04-27 17:34 | 49.56478 | -11.18723 | 36348 ft | 423 kts | 37° |
| 2026-04-27 17:34 | 49.61189 | -11.13298 | 36355 ft | 423 kts | 37° |
| 2026-04-27 17:35 | 49.65893 | -11.07867 | 36359 ft | 422 kts | 38° |
| 2026-04-27 17:35 | 49.70594 | -11.02427 | 36349 ft | 422 kts | 38° |
| 2026-04-27 17:36 | 49.75257 | -10.97017 | 36350 ft | 422 kts | 38° |
| 2026-04-27 17:36 | 49.79944 | -10.91566 | 36361 ft | 421 kts | 38° |
| 2026-04-27 17:37 | 49.84625 | -10.86108 | 36360 ft | 421 kts | 37° |
| 2026-04-27 17:37 | 49.89301 | -10.80643 | 36352 ft | 421 kts | 37° |
| 2026-04-27 17:38 | 49.93966 | -10.75178 | 36352 ft | 420 kts | 37° |
| 2026-04-27 17:38 | 49.98596 | -10.69739 | 36358 ft | 420 kts | 37° |
| 2026-04-27 17:39 | 50.03257 | -10.64250 | 36366 ft | 420 kts | 38° |
| 2026-04-27 17:39 | 50.07912 | -10.58755 | 36353 ft | 420 kts | 38° |
| 2026-04-27 17:40 | 50.12570 | -10.53242 | 36360 ft | 420 kts | 37° |
| 2026-04-27 17:40 | 50.17192 | -10.47759 | 36362 ft | 420 kts | 37° |
| 2026-04-27 17:41 | 50.21841 | -10.42230 | 36357 ft | 420 kts | 37° |
| 2026-04-27 17:41 | 50.26483 | -10.36695 | 36358 ft | 420 kts | 37° |
| 2026-04-27 17:42 | 50.31128 | -10.31142 | 36361 ft | 420 kts | 37° |
| 2026-04-27 17:42 | 50.35743 | -10.25611 | 36367 ft | 421 kts | 37° |
| 2026-04-27 17:43 | 50.40384 | -10.20036 | 36372 ft | 421 kts | 37° |
| 2026-04-27 17:43 | 50.45028 | -10.14442 | 36355 ft | 421 kts | 37° |
| 2026-04-27 17:44 | 50.49662 | -10.08846 | 36366 ft | 420 kts | 37° |
| 2026-04-27 17:44 | 50.54297 | -10.03236 | 36367 ft | 420 kts | 37° |
| 2026-04-27 17:45 | 50.58898 | -9.97652 | 36367 ft | 421 kts | 37° |
| 2026-04-27 17:45 | 50.63527 | -9.92020 | 36367 ft | 421 kts | 37° |
| 2026-04-27 17:46 | 50.68154 | -9.86376 | 36362 ft | 421 kts | 37° |
| 2026-04-27 17:46 | 50.72779 | -9.80719 | 36358 ft | 421 kts | 37° |
| 2026-04-27 17:47 | 50.77371 | -9.75089 | 36362 ft | 421 kts | 37° |
| 2026-04-27 17:47 | 50.81990 | -9.69410 | 36357 ft | 421 kts | 38° |
| 2026-04-27 17:48 | 50.86606 | -9.63721 | 36359 ft | 421 kts | 38° |
| 2026-04-27 17:48 | 50.91222 | -9.58018 | 36361 ft | 421 kts | 38° |
| 2026-04-27 17:49 | 50.95800 | -9.52347 | 36361 ft | 421 kts | 37° |
| 2026-04-27 17:49 | 51.00409 | -9.46622 | 36370 ft | 421 kts | 37° |
| 2026-04-27 17:50 | 51.05014 | -9.40888 | 36361 ft | 420 kts | 37° |
| 2026-04-27 17:50 | 51.11916 | -9.32265 | 36357 ft | 420 kts | 37° |
| 2026-04-27 17:51 | 51.16506 | -9.26512 | 36351 ft | 420 kts | 37° |
| 2026-04-27 17:51 | 51.21065 | -9.20783 | 36353 ft | 420 kts | 38° |
| 2026-04-27 17:52 | 51.25648 | -9.15009 | 36350 ft | 420 kts | 37° |
| 2026-04-27 17:52 | 51.30232 | -9.09217 | 36367 ft | 420 kts | 37° |
| 2026-04-27 17:53 | 51.34808 | -9.03421 | 36345 ft | 420 kts | 37° |
| 2026-04-27 17:53 | 51.39350 | -8.97654 | 36351 ft | 419 kts | 37° |
| 2026-04-27 17:54 | 51.43913 | -8.91844 | 36351 ft | 419 kts | 37° |
| 2026-04-27 17:54 | 51.48476 | -8.86020 | 36348 ft | 419 kts | 37° |
| 2026-04-27 17:55 | 51.53030 | -8.80192 | 36345 ft | 419 kts | 37° |
| 2026-04-27 17:55 | 51.57582 | -8.74350 | 36352 ft | 419 kts | 37° |
| 2026-04-27 17:56 | 51.62096 | -8.68542 | 36362 ft | 419 kts | 37° |
| 2026-04-27 17:56 | 51.66643 | -8.62676 | 36364 ft | 419 kts | 37° |
| 2026-04-27 17:57 | 51.71184 | -8.56802 | 36367 ft | 419 kts | 37° |
| 2026-04-27 17:57 | 51.75730 | -8.50907 | 36391 ft | 420 kts | 37° |
| 2026-04-27 17:58 | 51.80299 | -8.44967 | 36382 ft | 423 kts | 37° |
| 2026-04-27 17:58 | 51.84845 | -8.39038 | 36343 ft | 423 kts | 37° |
| 2026-04-27 17:59 | 51.89406 | -8.33073 | 36334 ft | 421 kts | 37° |
| 2026-04-27 17:59 | 51.93950 | -8.27116 | 36349 ft | 419 kts | 37° |
| 2026-04-27 18:00 | 51.98462 | -8.21185 | 36346 ft | 417 kts | 37° |
| 2026-04-27 18:00 | 52.02956 | -8.15262 | 36346 ft | 416 kts | 37° |
| 2026-04-27 18:01 | 52.07409 | -8.09377 | 36346 ft | 415 kts | 37° |
| 2026-04-27 18:01 | 52.11883 | -8.03451 | 36348 ft | 415 kts | 37° |
| 2026-04-27 18:02 | 52.16174 | -7.97139 | 36346 ft | 417 kts | 43° |
| 2026-04-27 18:02 | 52.20206 | -7.90343 | 36373 ft | 418 kts | 43° |
| 2026-04-27 18:03 | 52.24214 | -7.83564 | 36360 ft | 418 kts | 43° |
| 2026-04-27 18:03 | 52.28283 | -7.76748 | 36341 ft | 419 kts | 43° |
| 2026-04-27 18:04 | 52.32360 | -7.69931 | 36350 ft | 419 kts | 43° |
| 2026-04-27 18:04 | 52.36438 | -7.63097 | 36349 ft | 420 kts | 43° |
| 2026-04-27 18:05 | 52.40510 | -7.56250 | 36342 ft | 420 kts | 43° |
| 2026-04-27 18:05 | 52.44552 | -7.49437 | 36345 ft | 420 kts | 43° |
| 2026-04-27 18:06 | 52.48660 | -7.42648 | 36355 ft | 419 kts | 41° |
| 2026-04-27 18:06 | 52.52824 | -7.35936 | 36349 ft | 419 kts | 41° |
| 2026-04-27 18:07 | 52.56978 | -7.29214 | 36347 ft | 419 kts | 41° |
| 2026-04-27 18:07 | 52.61115 | -7.22475 | 36352 ft | 418 kts | 41° |
| 2026-04-27 18:08 | 52.65217 | -7.15766 | 36354 ft | 418 kts | 41° |
| 2026-04-27 18:08 | 52.69338 | -7.09006 | 36359 ft | 418 kts | 41° |
| 2026-04-27 18:09 | 52.73461 | -7.02223 | 36382 ft | 418 kts | 41° |
| 2026-04-27 18:09 | 52.77572 | -6.95440 | 36362 ft | 418 kts | 41° |
| 2026-04-27 18:10 | 52.81678 | -6.88647 | 36365 ft | 417 kts | 41° |
| 2026-04-27 18:10 | 52.85742 | -6.81898 | 36358 ft | 417 kts | 41° |
| 2026-04-27 18:11 | 52.89767 | -6.74992 | 36358 ft | 418 kts | 45° |
| 2026-04-27 18:11 | 52.91430 | -6.70968 | 36096 ft | 429 kts | 54° |
| 2026-04-27 18:11 | 52.92838 | -6.66592 | 36109 ft | 429 kts | 58° |
| 2026-04-27 18:12 | 52.94084 | -6.62203 | 36801 ft | 413 kts | 60° |
| 2026-04-27 18:12 | 52.95190 | -6.57857 | 37249 ft | 406 kts | 62° |
| 2026-04-27 18:12 | 52.96153 | -6.53516 | 37730 ft | 397 kts | 65° |
| 2026-04-27 18:12 | 52.96982 | -6.49257 | 38135 ft | 388 kts | 67° |
| 2026-04-27 18:13 | 52.97725 | -6.44986 | 38401 ft | 386 kts | 69° |